首页
METAR-TAF:

METAR-TAF

机场 :

安科纳, 意大利

纬度: 43-37N, 经度: 013-22E, 海拔: 12米

当前天气观测

该预报发布于20分钟前的19:20 UTC
风速2节,风向多变
温度 12°C
湿度 67%
气压 1021 hPa
能见度10公里或以上

METAR: LIPY 101920Z AUTO VRB02KT 9999 BKN082/// BKN099/// 12/06 Q1021

时间: 21:40 (19:40 UTC)

预报

该预报发布于2小时和40分钟前的17:00 UTC
预报有效从10日的 18点(UTC)到 11日的 18点(UTC)
风速5节,风向多变
能见度10公里或以上
散云层高于4000英尺
短暂存在
从 10日的 22点(UTC)到 11日的 01点(UTC)
多云层高于1400英尺
短暂存在
从 11日的 07点(UTC)到 11日的 10点(UTC)
多云层高于1400英尺
成为
从 11日的 10点(UTC)到 11日的 12点(UTC)
风速10节,风向东南

TAF: LIPY 101700Z 1018/1118 VRB05KT 9999 SCT040 TEMPO 1022/1101 RA BKN014 TEMPO 1107/1110 RA BKN014 BECMG 1110/1112 14010KT

超过4000个机场的气象观测和天气预报(METAR&TAF报告)。

可查询的气象台以黄色和红色小点在地图上表示。

将鼠标移到小点上方,可查看气象台名称。

然后点击查看天气观测和预报。

如需切换地图:点击带黑十字的绿色按钮放大地图;点击带横线的绿色按钮缩小地图;或者点击绿色箭头查看邻近地区的地图。


METAR-TAF: